Aviation Digital Data Service (ADDS)

Output produced by METARs form (1154 UTC 05 March 2015)
found at http://aviationweather.gov/adds/metars/
 
KORF 051141Z 0512/0612 02015G22KT 2SM -RA BR OVC002 
     FM051800 02020G29KT 1SM -RAPL OVC004 
     FM052200 02023G32KT 1SM -PLSN OVC004 
     FM060500 02021G30KT P6SM SCT025